createdAt,value
2023-05-22T00:02:22.260Z,15.6
2023-05-22T00:05:09.995Z,15.6
2023-05-22T00:07:57.664Z,15.6
2023-05-22T00:10:45.221Z,15.6
2023-05-22T00:13:32.973Z,15.6
2023-05-22T00:16:20.690Z,15.6
2023-05-22T00:19:08.414Z,15.6
2023-05-22T00:21:56.199Z,15.6
2023-05-22T00:24:43.805Z,15.6
2023-05-22T00:27:31.405Z,15.5
2023-05-22T00:30:19.124Z,15.5
2023-05-22T00:33:06.891Z,15.5
2023-05-22T00:35:54.744Z,15.5
2023-05-22T00:38:42.440Z,15.6
2023-05-22T00:41:30.284Z,15.5
2023-05-22T00:44:17.802Z,15.6
2023-05-22T00:47:05.539Z,15.5
2023-05-22T00:49:53.107Z,15.5
2023-05-22T00:52:40.793Z,15.6
2023-05-22T00:55:28.577Z,15.6
2023-05-22T00:58:16.360Z,15.6
2023-05-22T01:01:03.869Z,15.6
2023-05-22T01:03:51.752Z,15.6
2023-05-22T01:06:39.449Z,15.5
2023-05-22T01:09:27.079Z,15.6
2023-05-22T01:12:14.758Z,15.5
2023-05-22T01:15:02.491Z,15.5
2023-05-22T01:17:50.090Z,15.5
2023-05-22T01:20:38.215Z,15.5
2023-05-22T01:23:26.395Z,15.5
2023-05-22T01:26:14.085Z,15.4
2023-05-22T01:29:01.860Z,15.4
2023-05-22T01:31:49.447Z,15.3
2023-05-22T01:34:36.972Z,15.3
2023-05-22T01:37:24.583Z,15.3
2023-05-22T01:40:12.239Z,15.3
2023-05-22T01:42:59.978Z,15.3
2023-05-22T01:45:47.605Z,15.3
2023-05-22T01:48:35.420Z,15.3
2023-05-22T01:51:23.110Z,15.3
2023-05-22T01:54:10.869Z,15.3
2023-05-22T01:56:58.424Z,15.3
2023-05-22T01:59:46.105Z,15.3
2023-05-22T02:02:33.811Z,15.3
2023-05-22T02:05:21.670Z,15.3
2023-05-22T02:08:09.310Z,15.3
2023-05-22T02:10:56.986Z,15.3
2023-05-22T02:13:44.660Z,15.2
2023-05-22T02:16:32.495Z,15.2
2023-05-22T02:19:20.367Z,15.1
2023-05-22T02:22:08.185Z,15.1
2023-05-22T02:24:55.799Z,15
2023-05-22T02:27:43.505Z,15
2023-05-22T02:30:31.205Z,15
2023-05-22T02:33:19.066Z,15
2023-05-22T02:36:06.725Z,14.9
2023-05-22T02:38:54.507Z,14.9
2023-05-22T02:41:42.294Z,14.9
2023-05-22T02:44:29.996Z,14.8
2023-05-22T02:47:17.577Z,14.8
2023-05-22T02:50:05.226Z,14.8
2023-05-22T02:52:52.714Z,14.8
2023-05-22T02:55:40.253Z,14.7
2023-05-22T02:58:27.716Z,14.7
2023-05-22T03:01:15.480Z,14.7
2023-05-22T03:04:03.496Z,14.6
2023-05-22T03:06:51.293Z,14.6
2023-05-22T03:09:38.994Z,14.6
2023-05-22T03:12:26.707Z,14.6
2023-05-22T03:15:14.323Z,14.5
2023-05-22T03:18:02.036Z,14.5
2023-05-22T03:20:49.956Z,14.5
2023-05-22T03:23:37.635Z,14.4
2023-05-22T03:26:25.344Z,14.4
2023-05-22T03:29:13.032Z,14.3
2023-05-22T03:32:00.700Z,14.3
2023-05-22T03:34:48.359Z,14.3
2023-05-22T03:37:35.859Z,14.3
2023-05-22T03:40:23.598Z,14.3
2023-05-22T03:43:11.217Z,14.3
2023-05-22T03:45:59.051Z,14.3
2023-05-22T03:48:46.826Z,14.3
2023-05-22T03:51:34.691Z,14.3
2023-05-22T03:54:22.389Z,14.3
2023-05-22T03:57:09.989Z,14.3
2023-05-22T03:59:57.712Z,14.3
2023-05-22T04:02:45.607Z,14.2
2023-05-22T04:05:33.501Z,14.3
2023-05-22T04:08:21.449Z,14.3
2023-05-22T04:11:09.514Z,14.3
2023-05-22T04:13:57.202Z,14.3
2023-05-22T04:16:44.874Z,14.3
2023-05-22T04:19:32.690Z,14.3
2023-05-22T04:22:20.591Z,14.3
2023-05-22T04:25:08.249Z,14.3
2023-05-22T04:27:56.107Z,14.4
2023-05-22T04:30:43.738Z,14.4
2023-05-22T04:33:31.573Z,14.4
2023-05-22T04:36:19.459Z,14.5
2023-05-22T04:39:07.085Z,14.5
2023-05-22T04:41:55.200Z,14.5
2023-05-22T04:44:43.014Z,14.6
2023-05-22T04:47:31.164Z,14.6
2023-05-22T04:50:18.984Z,14.7
2023-05-22T04:53:06.615Z,14.7
2023-05-22T04:55:54.196Z,14.7
2023-05-22T04:58:41.965Z,14.8
2023-05-22T05:04:26.452Z,14.9
2023-05-22T05:07:14.033Z,14.9
2023-05-22T05:10:01.660Z,15
2023-05-22T05:12:49.291Z,15
2023-05-22T05:15:37.202Z,15.1
2023-05-22T05:18:24.984Z,15.2
2023-05-22T05:21:12.634Z,15.3
2023-05-22T05:24:00.141Z,15.3
2023-05-22T05:26:47.826Z,15.4
2023-05-22T05:29:35.424Z,15.5
2023-05-22T05:32:23.448Z,15.6
2023-05-22T05:35:11.814Z,15.6
2023-05-22T05:37:59.429Z,15.8
2023-05-22T05:40:46.974Z,15.8
2023-05-22T05:43:37.315Z,16
2023-05-22T05:46:25.064Z,16.3
2023-05-22T05:49:12.854Z,16.6
2023-05-22T05:52:00.566Z,16.9
2023-05-22T05:54:48.239Z,17.2
2023-05-22T05:57:35.887Z,17.4
2023-05-22T06:00:23.720Z,17.5
2023-05-22T06:03:11.524Z,17.5
2023-05-22T06:05:59.820Z,17.4
2023-05-22T06:08:47.935Z,17.4
2023-05-22T06:11:35.546Z,17.4
2023-05-22T06:14:23.190Z,17.6
2023-05-22T06:17:11.079Z,18
2023-05-22T06:19:58.893Z,18.3
2023-05-22T06:22:46.560Z,18.6
2023-05-22T06:25:34.225Z,19
2023-05-22T06:28:22.052Z,19.3
2023-05-22T06:31:09.827Z,19.5
2023-05-22T06:33:57.772Z,19.6
2023-05-22T06:36:45.665Z,19.7
2023-05-22T06:39:33.309Z,19.7
2023-05-22T06:42:21.019Z,19.5
2023-05-22T06:45:08.720Z,19.5
2023-05-22T06:47:56.438Z,19.5
2023-05-22T06:50:44.165Z,19.4
2023-05-22T06:53:31.845Z,19.3
2023-05-22T06:56:19.693Z,19.1
2023-05-22T06:59:07.514Z,18.8
2023-05-22T07:01:55.403Z,18.5
2023-05-22T07:04:43.337Z,18.4
2023-05-22T07:07:30.966Z,18.3
2023-05-22T07:10:18.650Z,18.3
2023-05-22T07:13:06.512Z,18.3
2023-05-22T07:15:54.320Z,18.3
2023-05-22T07:18:42.205Z,18.5
2023-05-22T07:21:29.978Z,18.7
2023-05-22T07:24:17.600Z,18.9
2023-05-22T07:27:05.346Z,18.8
2023-05-22T07:29:53.009Z,18.6
2023-05-22T07:32:40.764Z,18.5
2023-05-22T07:35:28.649Z,18.3
2023-05-22T07:38:16.535Z,18.2
2023-05-22T07:41:04.266Z,18
2023-05-22T07:43:51.946Z,18
2023-05-22T07:46:40.098Z,18
2023-05-22T07:49:28.170Z,18
2023-05-22T07:52:16.024Z,18.1
2023-05-22T07:55:03.839Z,18.2
2023-05-22T07:57:51.521Z,18.2
2023-05-22T08:00:39.102Z,18.2
2023-05-22T08:03:27.307Z,18.2
2023-05-22T08:06:15.692Z,18.1
2023-05-22T08:09:03.473Z,18.1
2023-05-22T08:11:51.511Z,18.1
2023-05-22T08:14:39.226Z,18
2023-05-22T08:17:27.002Z,18
2023-05-22T08:20:15.171Z,18.1
2023-05-22T08:23:03.520Z,18.2
2023-05-22T08:25:51.118Z,18.3
2023-05-22T08:28:38.976Z,18.3
2023-05-22T08:31:26.792Z,18.3
2023-05-22T08:34:14.648Z,18.3
2023-05-22T08:37:02.871Z,18.2
2023-05-22T08:39:50.713Z,18.2
2023-05-22T08:42:38.459Z,18.3
2023-05-22T08:45:26.345Z,18.3
2023-05-22T08:48:14.021Z,18.3
2023-05-22T08:51:01.909Z,18.1
2023-05-22T08:53:49.590Z,17.8
2023-05-22T08:56:42.759Z,17.8
2023-05-22T08:59:44.407Z,17.7
2023-05-22T09:02:34.962Z,17.6
2023-05-22T09:05:22.906Z,17.7
2023-05-22T09:08:19.502Z,17.8
2023-05-22T09:11:09.498Z,18
2023-05-22T09:13:57.411Z,18
2023-05-22T09:16:45.399Z,18
2023-05-22T09:19:33.314Z,18.4
2023-05-22T09:22:23.648Z,18.6
2023-05-22T09:25:12.023Z,18.7
2023-05-22T09:28:00.105Z,18.7
2023-05-22T09:30:48.034Z,18.7
2023-05-22T09:33:36.090Z,18.7
2023-05-22T09:36:23.777Z,18.8
2023-05-22T09:39:11.511Z,18.8
2023-05-22T09:41:59.234Z,18.8
2023-05-22T09:44:47.053Z,18.9
2023-05-22T09:47:34.904Z,18.9
2023-05-22T09:50:22.789Z,18.9
2023-05-22T09:53:10.524Z,18.9
2023-05-22T09:55:58.361Z,18.9
2023-05-22T09:58:45.887Z,19.1
2023-05-22T10:01:33.612Z,19.3
2023-05-22T10:04:21.477Z,19.4
2023-05-22T10:07:09.337Z,19.6
2023-05-22T10:09:56.978Z,20.3
2023-05-22T10:12:44.872Z,20.8
2023-05-22T10:15:32.592Z,21.2
2023-05-22T10:18:20.640Z,22
2023-05-22T10:21:09.332Z,22.9
2023-05-22T10:23:57.043Z,23.4
2023-05-22T10:26:44.794Z,24
2023-05-22T10:29:32.789Z,24.7
2023-05-22T10:32:20.628Z,25
2023-05-22T10:35:08.846Z,25
2023-05-22T10:37:56.647Z,24.9
2023-05-22T10:40:44.670Z,24.8
2023-05-22T10:43:32.827Z,24.8
2023-05-22T10:46:20.753Z,25
2023-05-22T10:49:08.493Z,25.2
2023-05-22T10:51:56.667Z,25.4
2023-05-22T10:54:44.521Z,25.6
2023-05-22T10:57:32.408Z,25.6
2023-05-22T11:00:20.071Z,25.5
2023-05-22T11:03:16.965Z,25.7
2023-05-22T11:06:06.511Z,26.1
2023-05-22T11:08:54.473Z,26.4
2023-05-22T11:11:42.233Z,26.8
2023-05-22T11:14:29.875Z,27.1
2023-05-22T11:17:17.738Z,26.8
2023-05-22T11:20:05.866Z,26.4
2023-05-22T11:22:53.881Z,26
2023-05-22T11:25:41.651Z,25.9
2023-05-22T11:28:29.571Z,26.1
2023-05-22T11:31:17.466Z,26.5
2023-05-22T11:34:05.213Z,26.4
2023-05-22T11:36:52.829Z,26.1
2023-05-22T11:39:40.380Z,26.1
2023-05-22T11:42:28.062Z,26.5
2023-05-22T11:45:15.837Z,26.7
2023-05-22T11:48:03.496Z,26.9
2023-05-22T11:51:09.222Z,27
2023-05-22T11:53:57.057Z,27
2023-05-22T11:56:44.579Z,27.1
2023-05-22T11:59:32.430Z,27.4
2023-05-22T12:02:20.213Z,27.4
2023-05-22T12:05:07.853Z,27.5
2023-05-22T12:07:55.506Z,27.7
2023-05-22T12:10:43.234Z,27.7
2023-05-22T12:13:30.793Z,27.8
2023-05-22T12:16:18.452Z,28.1
2023-05-22T12:19:06.153Z,28.3
2023-05-22T12:21:54.019Z,28.5
2023-05-22T12:24:41.847Z,28.2
2023-05-22T12:27:31.035Z,27.8
2023-05-22T12:30:21.090Z,27.4
2023-05-22T12:33:09.083Z,27.2
2023-05-22T12:35:56.868Z,27.3
2023-05-22T12:38:44.398Z,28
2023-05-22T12:41:32.080Z,28.6
2023-05-22T12:44:19.760Z,28.6
2023-05-22T12:47:07.592Z,28.7
2023-05-22T12:49:55.273Z,28.6
2023-05-22T12:52:43.092Z,28.3
2023-05-22T12:55:30.791Z,28.2
2023-05-22T12:58:18.424Z,28.5
2023-05-22T13:01:06.570Z,28.3
2023-05-22T13:03:54.189Z,28.5
2023-05-22T13:06:41.991Z,28.5
2023-05-22T13:09:29.928Z,28.6
2023-05-22T13:12:17.655Z,28.7
2023-05-22T13:15:05.527Z,28.3
2023-05-22T13:17:53.202Z,28.2
2023-05-22T13:20:40.940Z,28.2
2023-05-22T13:23:28.613Z,28
2023-05-22T13:26:16.663Z,28
2023-05-22T13:29:04.294Z,28.2
2023-05-22T13:31:52.122Z,28.6
2023-05-22T13:34:39.746Z,29.1
2023-05-22T13:37:27.842Z,29.6
2023-05-22T13:40:15.604Z,29.8
2023-05-22T13:43:03.248Z,29.8
2023-05-22T13:45:50.891Z,29.9
2023-05-22T13:48:38.729Z,29.7
2023-05-22T13:51:26.302Z,29.5
2023-05-22T13:54:13.935Z,29.3
2023-05-22T13:57:01.684Z,29.4
2023-05-22T13:59:49.473Z,29.7
2023-05-22T14:02:37.425Z,29.4
2023-05-22T14:05:25.385Z,28.9
2023-05-22T14:08:13.009Z,28.5
2023-05-22T14:11:00.591Z,28
2023-05-22T14:13:48.448Z,27.8
2023-05-22T14:16:36.136Z,28
2023-05-22T14:19:24.259Z,28.1
2023-05-22T14:22:12.052Z,28.5
2023-05-22T14:24:59.647Z,28.8
2023-05-22T14:27:47.281Z,28.5
2023-05-22T14:30:35.201Z,28
2023-05-22T14:33:23.153Z,27.8
2023-05-22T14:36:11.141Z,27.9
2023-05-22T14:38:58.866Z,28.1
2023-05-22T14:41:46.508Z,28.1
2023-05-22T14:44:34.041Z,27.9
2023-05-22T14:47:21.789Z,27.8
2023-05-22T14:50:18.756Z,27.6
2023-05-22T14:53:08.440Z,27.7
2023-05-22T14:55:56.043Z,27.6
2023-05-22T14:58:43.598Z,27.4
2023-05-22T15:01:31.186Z,27.3
2023-05-22T15:04:19.163Z,27.3
2023-05-22T15:07:06.975Z,27.3
2023-05-22T15:09:54.563Z,27.2
2023-05-22T15:12:42.313Z,27.3
2023-05-22T15:15:30.106Z,27.5
2023-05-22T15:18:17.867Z,27.4
2023-05-22T15:21:05.662Z,27.2
2023-05-22T15:23:53.658Z,26.9
2023-05-22T15:26:41.277Z,27
2023-05-22T15:29:28.910Z,27.3
2023-05-22T15:32:16.728Z,27.3
2023-05-22T15:35:04.650Z,27.4
2023-05-22T15:37:52.537Z,27.5
2023-05-22T15:40:40.182Z,27
2023-05-22T15:43:27.829Z,26.4
2023-05-22T15:46:15.481Z,25.8
2023-05-22T15:49:03.184Z,25.8
2023-05-22T15:51:50.746Z,25.9
2023-05-22T15:54:38.547Z,26
2023-05-22T15:57:26.437Z,26.3
2023-05-22T16:00:14.560Z,26.4
2023-05-22T16:03:05.237Z,26.4
2023-05-22T16:05:52.954Z,26.4
2023-05-22T16:08:40.391Z,26.4
2023-05-22T16:11:28.295Z,26.4
2023-05-22T16:14:15.923Z,26.4
2023-05-22T16:17:03.677Z,26.1
2023-05-22T16:19:51.549Z,26
2023-05-22T16:22:47.860Z,26
2023-05-22T16:25:36.600Z,26
2023-05-22T16:28:24.396Z,25.5
2023-05-22T16:31:12.142Z,25
2023-05-22T16:34:00.068Z,24.4
2023-05-22T16:36:47.692Z,24
2023-05-22T16:39:35.166Z,23.7
2023-05-22T16:42:22.645Z,23.4
2023-05-22T16:45:10.396Z,23.2
2023-05-22T16:47:58.242Z,23
2023-05-22T16:50:46.199Z,22.8
2023-05-22T16:53:35.566Z,22.9
2023-05-22T16:56:26.005Z,22.8
2023-05-22T16:59:13.845Z,22.6
2023-05-22T17:02:02.206Z,22.2
2023-05-22T17:04:49.977Z,21.8
2023-05-22T17:07:37.662Z,21.5
2023-05-22T17:10:25.338Z,21.2
2023-05-22T17:13:13.018Z,20.9
2023-05-22T17:16:00.708Z,20.7
2023-05-22T17:18:48.579Z,20.5
2023-05-22T17:21:36.349Z,20.3
2023-05-22T17:24:24.201Z,20.3
2023-05-22T17:27:12.776Z,20.1
2023-05-22T17:30:19.206Z,20.1
2023-05-22T17:33:07.032Z,20
2023-05-22T17:35:55.072Z,20
2023-05-22T17:38:42.836Z,20
2023-05-22T17:41:30.407Z,20.1
2023-05-22T17:44:18.194Z,20.2
2023-05-22T17:47:06.026Z,20.5
2023-05-22T17:49:53.615Z,20.8
2023-05-22T17:52:41.443Z,21.1
2023-05-22T17:55:29.223Z,21.4
2023-05-22T17:58:17.157Z,21.5
2023-05-22T18:01:04.962Z,21.6
2023-05-22T18:03:53.109Z,21.7
2023-05-22T18:06:41.196Z,21.8
2023-05-22T18:09:28.993Z,21.7
2023-05-22T18:12:31.010Z,21.5
2023-05-22T18:15:20.062Z,21.5
2023-05-22T18:18:07.968Z,21.4
2023-05-22T18:20:58.162Z,21.3
2023-05-22T18:23:45.664Z,21.1
2023-05-22T18:26:33.450Z,21
2023-05-22T18:29:21.245Z,20.9
2023-05-22T18:32:08.875Z,20.8
2023-05-22T18:34:56.669Z,20.8
2023-05-22T18:37:44.612Z,20.7
2023-05-22T18:40:32.251Z,20.6
2023-05-22T18:43:19.991Z,20.5
2023-05-22T18:46:07.751Z,20.5
2023-05-22T18:48:55.662Z,20.3
2023-05-22T18:51:43.341Z,20.2
2023-05-22T18:54:31.002Z,20
2023-05-22T18:57:18.690Z,20
2023-05-22T19:00:06.851Z,19.8
2023-05-22T19:02:54.954Z,19.7
2023-05-22T19:05:42.857Z,19.5
2023-05-22T19:08:30.582Z,19.4
2023-05-22T19:11:18.427Z,19.3
2023-05-22T19:14:05.880Z,19.3
2023-05-22T19:16:53.726Z,19.2
2023-05-22T19:19:41.672Z,19.1
2023-05-22T19:22:29.715Z,19
2023-05-22T19:25:17.464Z,19
2023-05-22T19:28:07.300Z,18.9
2023-05-22T19:30:55.033Z,18.9
2023-05-22T19:33:43.127Z,18.9
2023-05-22T19:36:30.877Z,18.8
2023-05-22T19:39:21.376Z,18.8
2023-05-22T19:42:09.155Z,18.8
2023-05-22T19:44:56.788Z,18.7
2023-05-22T19:47:44.429Z,18.6
2023-05-22T19:50:32.149Z,18.5
2023-05-22T19:53:19.880Z,18.4
2023-05-22T19:56:07.729Z,18.3
2023-05-22T19:58:55.289Z,18.2
2023-05-22T20:01:43.065Z,18
2023-05-22T20:04:30.863Z,17.9
2023-05-22T20:07:18.809Z,17.8
2023-05-22T20:10:06.564Z,17.8
2023-05-22T20:12:54.575Z,17.6
2023-05-22T20:15:42.460Z,17.5
2023-05-22T20:18:30.191Z,17.5
2023-05-22T20:21:17.735Z,17.3
2023-05-22T20:24:05.416Z,17.2
2023-05-22T20:26:53.117Z,17.2
2023-05-22T20:29:40.704Z,17
2023-05-22T20:32:28.705Z,17
2023-05-22T20:35:16.485Z,16.9
2023-05-22T20:38:04.435Z,16.9
2023-05-22T20:40:52.424Z,16.8
2023-05-22T20:43:40.339Z,16.7
2023-05-22T20:46:28.340Z,16.6
2023-05-22T20:49:16.106Z,16.6
2023-05-22T20:52:04.045Z,16.5
2023-05-22T20:54:51.704Z,16.4
2023-05-22T20:57:39.475Z,16.4
2023-05-22T21:00:27.750Z,16.4
2023-05-22T21:03:15.431Z,16.2
2023-05-22T21:06:03.128Z,16.2
2023-05-22T21:08:52.579Z,16.2
2023-05-22T21:11:41.905Z,16.1
2023-05-22T21:14:29.635Z,16.1
2023-05-22T21:17:17.486Z,16
2023-05-22T21:20:05.517Z,16
2023-05-22T21:22:53.272Z,15.9
2023-05-22T21:25:40.922Z,15.9
2023-05-22T21:28:28.502Z,15.8
2023-05-22T21:31:16.339Z,15.8
2023-05-22T21:34:04.236Z,15.7
2023-05-22T21:36:51.905Z,15.6
2023-05-22T21:39:39.694Z,15.6
2023-05-22T21:42:34.695Z,15.5
2023-05-22T21:45:34.808Z,15.4
2023-05-22T21:48:22.622Z,15.2
2023-05-22T21:51:10.584Z,15.2
2023-05-22T21:53:58.238Z,15.1
2023-05-22T21:56:45.969Z,15.1
2023-05-22T21:59:33.877Z,15.1
2023-05-22T22:02:21.541Z,15
2023-05-22T22:05:09.364Z,15.1
2023-05-22T22:07:57.151Z,15
2023-05-22T22:10:44.689Z,15
2023-05-22T22:13:32.335Z,15
2023-05-22T22:16:19.961Z,15
2023-05-22T22:19:07.726Z,15
2023-05-22T22:21:55.910Z,15
2023-05-22T22:24:43.569Z,14.9
2023-05-22T22:27:31.195Z,14.9
2023-05-22T22:30:18.885Z,14.9
2023-05-22T22:33:06.726Z,14.8
2023-05-22T22:35:54.447Z,14.7
2023-05-22T22:38:42.197Z,14.7
2023-05-22T22:41:29.861Z,14.6
2023-05-22T22:44:17.408Z,14.6
2023-05-22T22:47:05.324Z,14.6
2023-05-22T22:49:53.163Z,14.6
2023-05-22T22:52:40.948Z,14.6
2023-05-22T22:55:29.063Z,14.6
2023-05-22T22:58:17.178Z,14.5
2023-05-22T23:01:04.789Z,14.5
2023-05-22T23:03:52.727Z,14.4
2023-05-22T23:06:40.507Z,14.4
2023-05-22T23:09:28.264Z,14.4
2023-05-22T23:12:16.114Z,14.3
2023-05-22T23:15:03.981Z,14.2
2023-05-22T23:17:52.152Z,14.2
2023-05-22T23:20:40.061Z,14.1
2023-05-22T23:23:27.736Z,14.1
2023-05-22T23:26:15.315Z,14
2023-05-22T23:29:03.179Z,14
2023-05-22T23:31:51.051Z,13.9
2023-05-22T23:34:38.925Z,13.9
2023-05-22T23:37:26.602Z,14
2023-05-22T23:40:14.097Z,14
2023-05-22T23:43:01.670Z,14.1
2023-05-22T23:45:49.585Z,14.2
2023-05-22T23:48:37.432Z,14.3
2023-05-22T23:51:25.109Z,14.3
2023-05-22T23:54:12.891Z,14.4
2023-05-22T23:57:00.521Z,14.3
2023-05-22T23:59:48.252Z,14.4
